Atterbury, Illinois
Current Conditions -  °F | °C
As of 2:52 AM on Sunday 26 Oct 2014 (Local Time) from KSPI Reporting Station
Clear Clear  
Wind Chill: 11°   Ceiling: Unl
Heat Index: 11°   Visibility: 10mi
Dew Point:   Wind: 8mph
Humidity: 59%   Direction: 360°N
Pressure: 30.04"   Gusts: NA
Location:  40.0452°N, 89.8548°W
Report Text: KSPI 260752Z 36007KT 10SM CLR 11/03 A3004 RMK AO2 SLP168 T01110033
Loading
Personal Weather Stations






























Interactive Weather Map
Tropical Storm Tracking
New forecast layout! Learn more

10-Day Weather Forecast

Advertisements
Track Severe Weather on mobile